Time;durP1;ratioP1;P1;durP2;ratioP2;P2;SDS_P1;SDS_P2;PMS_P1;PMS_P2;Temp;Humidity;BMP_temperature;BMP_pressure;BME280_temperature;BME280_humidity;BME280_pressure;Samples;Min_cycle;Max_cycle;Signal;HPM_P1;HPM_P2
2022/04/11 00:02:13;;;;;;;;;7.25;6.50;;;;;10.59;46.77;100924.16;4973055;28;45526;-57
2022/04/11 00:04:38;;;;;;;;;5.00;5.00;;;;;10.51;46.28;100905.06;4974293;28;45354;-57
2022/04/11 00:07:04;;;;;;;;;7.50;5.00;;;;;10.56;46.84;100919.84;4977125;28;45603;-58
2022/04/11 00:09:29;;;;;;;;;5.25;5.25;;;;;10.52;46.23;100907.63;4970591;28;45501;-58
2022/04/11 00:11:56;;;;;;;;;8.50;5.75;;;;;10.48;46.55;100900.75;4973598;28;45404;-57
2022/04/11 00:14:22;;;;;;;;;4.25;2.50;;;;;10.50;46.91;100913.97;4983585;28;45355;-56
2022/04/11 00:16:48;;;;;;;;;3.75;3.75;;;;;10.44;46.59;100914.28;4998094;28;45456;-58
2022/04/11 00:19:13;;;;;;;;;5.75;4.00;;;;;10.39;46.40;100903.88;4975709;28;46070;-58
2022/04/11 00:21:39;;;;;;;;;1.00;1.00;;;;;10.42;46.58;100913.53;4976925;27;45239;-56
2022/04/11 00:24:04;;;;;;;;;3.00;3.00;;;;;10.37;46.64;100905.75;4974066;28;45466;-56
2022/04/11 00:26:30;;;;;;;;;5.00;3.00;;;;;10.08;45.70;100864.66;4974999;28;45650;-57
2022/04/11 00:28:55;;;;;;;;;4.00;4.00;;;;;10.34;46.14;100908.56;4980850;28;47478;-55
2022/04/11 00:31:21;;;;;;;;;3.00;3.00;;;;;10.16;45.88;100869.59;4979147;27;45525;-58
2022/04/11 00:33:46;;;;;;;;;3.00;3.00;;;;;10.21;46.07;100870.22;4973842;28;45535;-57
2022/04/11 00:36:12;;;;;;;;;4.50;4.50;;;;;10.31;46.03;100882.16;4974495;27;46064;-56
2022/04/11 00:38:37;;;;;;;;;3.00;3.00;;;;;10.29;46.54;100873.41;4972533;28;45677;-58
2022/04/11 00:41:03;;;;;;;;;4.00;4.00;;;;;10.28;46.38;100861.00;4983079;28;45646;-56
2022/04/11 00:43:48;;;;;;;;;3.00;3.00;;;;;10.27;46.65;100865.47;4982591;27;45693;-57
2022/04/11 00:46:14;;;;;;;;;4.50;3.00;;;;;10.27;47.21;100856.63;4984334;27;45509;-56
2022/04/11 00:48:40;;;;;;;;;5.75;3.50;;;;;10.28;46.73;100855.69;4968313;28;45351;-57
2022/04/11 00:51:19;;;;;;;;;3.00;3.00;;;;;10.22;46.48;100856.03;4979661;28;45404;-56
2022/04/11 00:53:46;;;;;;;;;3.00;3.00;;;;;10.18;45.97;100849.97;4972502;28;45458;-57
2022/04/11 00:56:13;;;;;;;;;3.00;3.00;;;;;10.15;46.94;100835.97;4973568;28;45467;-57
2022/04/11 00:58:39;;;;;;;;;3.00;3.00;;;;;10.03;46.89;100822.38;4973402;28;46178;-56
2022/04/11 01:01:05;;;;;;;;;3.50;3.50;;;;;10.18;46.20;100844.66;4977527;28;45493;-58
2022/04/11 01:03:32;;;;;;;;;4.00;3.00;;;;;10.00;46.15;100813.66;5061402;27;45429;-55
2022/04/11 01:05:58;;;;;;;;;3.00;1.25;;;;;10.11;46.51;100829.09;5050467;27;45549;-56
2022/04/11 01:08:26;;;;;;;;;2.50;2.50;;;;;10.14;46.66;100834.25;4973359;28;45329;-55
2022/04/11 01:10:52;;;;;;;;;5.75;5.50;;;;;10.11;47.42;100827.28;5030369;28;45308;-54
2022/04/11 01:13:18;;;;;;;;;10.00;2.75;;;;;10.10;46.66;100825.56;4982313;27;45440;-56
2022/04/11 01:15:55;;;;;;;;;2.25;2.25;;;;;10.04;46.61;100815.25;5019945;28;45613;-57
2022/04/11 01:18:21;;;;;;;;;2.50;2.50;;;;;10.03;46.72;100802.91;4974488;28;45504;-54
2022/04/11 01:20:46;;;;;;;;;5.25;3.00;;;;;9.98;46.85;100803.13;4973227;28;45411;-58
2022/04/11 01:23:11;;;;;;;;;2.25;1.00;;;;;9.90;46.15;100794.69;4974116;28;45378;-57
2022/04/11 01:25:39;;;;;;;;;4.00;2.75;;;;;9.90;46.61;100792.03;4973133;27;45626;-58
2022/04/11 01:28:04;;;;;;;;;1.50;1.50;;;;;9.89;45.79;100790.28;4970615;28;46342;-56
2022/04/11 01:30:30;;;;;;;;;3.00;3.00;;;;;9.96;46.61;100802.34;4975412;28;45447;-55
2022/04/11 01:32:55;;;;;;;;;3.00;3.00;;;;;9.84;46.82;100780.84;4972895;28;45255;-55
2022/04/11 01:35:24;;;;;;;;;2.25;2.25;;;;;9.88;46.64;100783.25;4974248;27;45525;-55
2022/04/11 01:37:49;;;;;;;;;1.25;1.25;;;;;9.87;46.55;100780.69;4972044;28;45466;-56
2022/04/11 01:40:15;;;;;;;;;3.00;2.25;;;;;9.80;45.71;100780.16;4971510;27;45438;-54
2022/04/11 01:42:43;;;;;;;;;3.00;3.00;;;;;9.81;46.06;100781.88;4976792;27;45431;-54
2022/04/11 01:45:10;;;;;;;;;3.50;2.00;;;;;9.83;46.25;100785.31;4963969;28;45524;-56
2022/04/11 01:47:37;;;;;;;;;2.00;2.00;;;;;9.84;45.68;100780.84;4970271;28;45531;-56
2022/04/11 01:50:02;;;;;;;;;2.00;2.00;;;;;9.79;46.10;100773.13;4973692;27;45240;-57
2022/04/11 01:52:27;;;;;;;;;2.75;2.75;;;;;9.61;46.13;100739.50;4987040;28;45159;-56
2022/04/11 01:54:53;;;;;;;;;1.50;1.50;;;;;9.68;45.30;100754.19;4982025;27;45679;-56
2022/04/11 01:57:18;;;;;;;;;2.25;1.75;;;;;9.82;45.23;100772.09;4974244;28;46603;-56
2022/04/11 01:59:44;;;;;;;;;1.25;1.25;;;;;9.78;45.49;100765.22;4976951;28;45267;-57
2022/04/11 02:02:09;;;;;;;;;2.00;2.00;;;;;9.78;46.01;100763.44;4976549;28;45442;-56
2022/04/11 02:04:34;;;;;;;;;2.50;2.50;;;;;9.75;45.15;100763.56;4976745;28;45236;-55
2022/04/11 02:07:00;;;;;;;;;2.75;1.75;;;;;9.73;45.52;100763.66;4969205;28;46804;-56
2022/04/11 02:09:26;;;;;;;;;1.50;1.00;;;;;9.70;45.55;100758.50;4969617;28;45447;-54
2022/04/11 02:11:51;;;;;;;;;5.00;2.00;;;;;9.69;46.27;100754.13;4975846;28;46030;-56
2022/04/11 02:14:16;;;;;;;;;1.00;1.00;;;;;9.69;45.75;100746.16;4977126;28;45256;-62
2022/04/11 02:16:42;;;;;;;;;2.50;2.50;;;;;9.67;46.01;100761.31;5001963;28;46065;-56
2022/04/11 02:19:07;;;;;;;;;2.00;2.00;;;;;9.66;46.55;100750.75;4975135;28;45846;-55
2022/04/11 02:21:33;;;;;;;;;3.00;3.00;;;;;9.68;46.58;100754.19;4976313;28;45495;-57
2022/04/11 02:23:58;;;;;;;;;2.00;2.00;;;;;9.67;45.42;100752.47;4976012;28;45292;-55
2022/04/11 02:26:24;;;;;;;;;2.00;1.50;;;;;9.56;45.84;100728.25;4976242;28;45484;-57
2022/04/11 02:28:49;;;;;;;;;3.00;3.00;;;;;9.63;46.91;100734.97;4976244;28;45407;-56
2022/04/11 02:31:15;;;;;;;;;1.00;1.00;;;;;9.57;47.16;100724.66;4975733;28;45377;-57
2022/04/11 02:33:40;;;;;;;;;1.50;1.50;;;;;9.55;46.78;100731.84;4974491;27;46658;-58
2022/04/11 02:36:06;;;;;;;;;2.00;2.00;;;;;9.54;47.10;100728.34;4976745;28;46047;-53
2022/04/11 02:38:31;;;;;;;;;2.00;2.00;;;;;9.53;46.02;100729.28;4974461;28;45384;-56
2022/04/11 02:40:56;;;;;;;;;4.00;2.25;;;;;9.55;46.12;100739.81;4977065;28;45347;-57
2022/04/11 02:43:22;;;;;;;;;4.25;2.00;;;;;9.51;46.28;100730.28;4955860;28;45518;-56
2022/04/11 02:45:47;;;;;;;;;6.00;3.00;;;;;9.46;46.25;100715.44;4956553;28;47175;-62
2022/04/11 02:48:13;;;;;;;;;2.00;2.00;;;;;9.41;46.34;100714.81;4976102;28;45169;-54
2022/04/11 02:50:38;;;;;;;;;2.00;2.00;;;;;9.45;46.54;100726.97;4976469;28;45686;-57
2022/04/11 02:53:04;;;;;;;;;2.25;2.25;;;;;9.46;46.16;100720.72;4963571;28;45446;-56
2022/04/11 02:55:29;;;;;;;;;5.00;2.00;;;;;9.39;46.70;100710.50;4969984;28;45979;-56
2022/04/11 02:57:55;;;;;;;;;2.00;2.00;;;;;9.28;46.89;100686.28;4976065;28;45350;-56
2022/04/11 03:00:20;;;;;;;;;3.75;2.00;;;;;9.35;46.83;100696.50;4975396;28;45446;-57
2022/04/11 03:02:46;;;;;;;;;3.00;3.00;;;;;9.25;46.04;100666.06;4976349;27;45419;-54
2022/04/11 03:05:11;;;;;;;;;7.25;4.50;;;;;9.29;46.79;100678.25;4989848;28;45440;-55
2022/04/11 03:07:37;;;;;;;;;2.50;2.00;;;;;9.31;46.76;100684.34;4975333;28;45266;-55
2022/04/11 03:10:03;;;;;;;;;2.75;2.75;;;;;9.30;46.84;100679.97;4978870;28;45843;-55
2022/04/11 03:12:28;;;;;;;;;3.50;2.25;;;;;9.29;46.37;100682.69;4976635;28;45407;-55
2022/04/11 03:14:53;;;;;;;;;3.00;3.00;;;;;9.26;47.21;100681.06;4988238;28;47494;-55
2022/04/11 03:17:19;;;;;;;;;3.00;3.00;;;;;9.21;46.58;100669.78;5031529;27;45353;-56
2022/04/11 03:19:45;;;;;;;;;3.25;1.50;;;;;9.26;46.88;100672.25;4974131;28;45262;-55
2022/04/11 03:22:11;;;;;;;;;1.00;1.00;;;;;9.26;46.46;100677.53;4975795;28;45549;-55
2022/04/11 03:24:38;;;;;;;;;2.75;2.75;;;;;9.20;46.66;100668.06;4974931;28;46255;-55
2022/04/11 03:27:03;;;;;;;;;2.00;2.00;;;;;9.19;46.40;100671.66;4975220;28;45287;-58
2022/04/11 03:29:29;;;;;;;;;2.75;2.75;;;;;9.20;46.26;100676.03;4972809;27;45554;-55
2022/04/11 03:31:55;;;;;;;;;2.00;2.00;;;;;9.13;46.91;100670.19;4971433;28;45753;-56
2022/04/11 03:34:20;;;;;;;;;5.50;4.00;;;;;9.22;47.48;100675.97;4973676;28;47655;-55
2022/04/11 03:36:46;;;;;;;;;3.00;3.00;;;;;9.23;47.06;100681.19;4974473;28;45567;-55
2022/04/11 03:39:11;;;;;;;;;3.00;3.00;;;;;9.23;47.38;100678.53;4974231;28;45489;-56
2022/04/11 03:41:37;;;;;;;;;3.50;3.50;;;;;9.19;46.30;100665.50;4976069;28;45457;-55
2022/04/11 03:44:03;;;;;;;;;4.00;2.25;;;;;9.22;46.68;100678.63;4975562;28;46113;-55
2022/04/11 03:46:28;;;;;;;;;2.25;2.00;;;;;9.20;46.78;100677.84;4972279;28;45458;-55
2022/04/11 03:48:54;;;;;;;;;3.00;3.00;;;;;9.10;46.95;100662.34;4969500;28;45270;-55
2022/04/11 03:51:20;;;;;;;;;2.50;2.50;;;;;9.15;47.14;100659.50;4975984;28;45475;-56
2022/04/11 03:53:47;;;;;;;;;2.75;1.25;;;;;9.16;47.28;100653.25;4973360;28;46216;-55
2022/04/11 03:56:14;;;;;;;;;4.00;4.00;;;;;9.09;46.93;100642.06;4973364;28;45414;-57
2022/04/11 03:58:40;;;;;;;;;2.25;2.00;;;;;9.11;47.05;100647.28;4974733;28;44845;-57
2022/04/11 04:01:06;;;;;;;;;5.00;2.50;;;;;9.09;47.35;100638.56;4984845;28;45594;-58
2022/04/11 04:03:32;;;;;;;;;2.50;2.50;;;;;9.13;47.45;100643.66;4974776;28;45843;-55
2022/04/11 04:05:58;;;;;;;;;2.00;2.00;;;;;9.13;46.37;100637.50;4975134;28;45514;-54
2022/04/11 04:08:23;;;;;;;;;2.50;2.50;;;;;9.06;46.65;100633.41;4974058;28;45346;-55
2022/04/11 04:10:49;;;;;;;;;5.50;5.00;;;;;9.05;46.39;100631.69;4974181;28;45536;-55
2022/04/11 04:13:14;;;;;;;;;6.00;4.50;;;;;9.04;46.96;100624.66;4974157;28;45380;-56
2022/04/11 04:15:40;;;;;;;;;2.75;2.75;;;;;9.03;46.93;100623.81;5027715;28;45453;-56
2022/04/11 04:18:05;;;;;;;;;4.50;2.00;;;;;9.05;47.60;100631.69;4960407;28;45259;-53
2022/04/11 04:20:31;;;;;;;;;3.00;3.00;;;;;9.04;47.04;100627.31;4974379;28;45417;-56
2022/04/11 04:22:56;;;;;;;;;5.00;3.00;;;;;9.01;47.66;100625.69;4972559;28;48167;-55
2022/04/11 04:25:22;;;;;;;;;5.00;5.00;;;;;8.94;46.58;100618.09;4972521;28;45395;-55
2022/04/11 04:27:48;;;;;;;;;4.50;4.50;;;;;8.96;47.14;100627.69;4972041;28;45370;-52
2022/04/11 04:30:13;;;;;;;;;5.00;5.00;;;;;9.01;46.55;100627.47;4974087;27;45469;-56
2022/04/11 04:32:40;;;;;;;;;3.00;3.00;;;;;8.95;47.12;100619.81;4973364;28;47350;-56
2022/04/11 04:35:07;;;;;;;;;2.00;2.00;;;;;8.95;47.25;100610.06;4963011;28;45493;-55
2022/04/11 04:37:32;;;;;;;;;2.00;2.00;;;;;8.95;46.95;100607.41;4974076;28;45759;-54
2022/04/11 04:39:58;;;;;;;;;6.00;4.00;;;;;8.94;47.33;100602.19;4973184;28;45584;-56
2022/04/11 04:42:26;;;;;;;;;2.75;2.50;;;;;8.85;47.81;100591.09;4972278;28;47590;-57
2022/04/11 04:44:52;;;;;;;;;4.50;4.50;;;;;8.89;46.93;100596.25;4974357;28;45434;-56
2022/04/11 04:47:17;;;;;;;;;2.00;2.00;;;;;8.84;48.11;100596.44;4972862;28;45484;-56
2022/04/11 04:49:45;;;;;;;;;2.75;2.75;;;;;8.76;47.35;100599.50;4963454;28;45654;-59
2022/04/11 04:52:10;;;;;;;;;2.25;2.25;;;;;8.81;47.28;100610.72;4969948;27;46202;-57
2022/04/11 04:54:36;;;;;;;;;2.00;2.00;;;;;8.70;47.32;100598.91;4973780;27;45322;-56
2022/04/11 04:57:02;;;;;;;;;4.50;4.50;;;;;8.85;48.16;100624.69;4973976;28;45461;-55
2022/04/11 04:59:27;;;;;;;;;3.00;3.00;;;;;8.86;47.51;100627.28;4974087;28;45595;-57
2022/04/11 05:01:53;;;;;;;;;4.00;3.50;;;;;8.81;47.47;100626.63;4987460;28;45543;-57
2022/04/11 05:04:18;;;;;;;;;5.75;5.00;;;;;8.80;48.31;100634.66;4973679;28;45441;-54
2022/04/11 05:06:44;;;;;;;;;6.00;5.00;;;;;8.79;47.97;100635.59;4972331;28;45480;-55
2022/04/11 05:09:09;;;;;;;;;3.00;3.00;;;;;8.79;47.21;100639.13;4973615;28;45523;-55
2022/04/11 05:11:34;;;;;;;;;5.50;3.00;;;;;8.78;47.91;100629.44;4973722;28;46190;-54
2022/04/11 05:14:00;;;;;;;;;4.25;4.00;;;;;8.75;48.11;100620.78;4973166;28;45481;-56
2022/04/11 05:16:25;;;;;;;;;6.25;3.50;;;;;8.73;48.25;100614.69;4973341;28;45269;-56
2022/04/11 05:18:50;;;;;;;;;4.50;4.50;;;;;8.77;47.96;100622.44;4974841;28;45275;-56
2022/04/11 05:21:16;;;;;;;;;5.00;5.00;;;;;8.72;47.99;100619.13;4972586;28;46673;-55
2022/04/11 05:23:41;;;;;;;;;3.00;3.00;;;;;8.71;48.23;100612.09;4983355;28;45448;-55
2022/04/11 05:26:07;;;;;;;;;4.50;4.50;;;;;8.80;48.36;100626.72;5010423;28;45428;-54
2022/04/11 05:28:33;;;;;;;;;3.00;3.00;;;;;8.79;48.16;100609.09;4972966;28;45499;-55
2022/04/11 05:30:59;;;;;;;;;9.00;4.50;;;;;8.82;48.58;100617.75;4972930;28;45817;-56
2022/04/11 05:33:25;;;;;;;;;6.50;3.00;;;;;8.79;48.15;100609.09;4957244;28;45417;-53
2022/04/11 05:35:51;;;;;;;;;6.75;5.50;;;;;8.72;48.02;100602.34;4964916;28;45316;-56
2022/04/11 05:38:16;;;;;;;;;6.00;3.00;;;;;8.77;47.96;100606.50;4977122;28;45414;-54
2022/04/11 05:40:43;;;;;;;;;4.00;3.00;;;;;8.78;47.93;100612.66;4976790;28;46084;-53
2022/04/11 05:43:08;;;;;;;;;2.00;2.00;;;;;8.75;48.16;100597.78;4976359;28;45520;-49
2022/04/11 05:45:35;;;;;;;;;9.00;5.00;;;;;8.64;47.60;100583.31;4976624;27;46600;-51
2022/04/11 05:48:00;;;;;;;;;4.00;4.00;;;;;8.72;47.18;100600.56;4976961;28;45184;-53
2022/04/11 05:50:26;;;;;;;;;4.50;4.50;;;;;8.67;48.17;100599.94;4958907;28;45379;-59
2022/04/11 05:52:52;;;;;;;;;5.75;5.75;;;;;8.74;48.65;100606.66;4976018;28;45483;-54
2022/04/11 05:55:17;;;;;;;;;6.00;6.00;;;;;8.70;47.88;100605.06;4974629;28;45448;-54
2022/04/11 05:57:43;;;;;;;;;4.50;4.50;;;;;8.75;47.40;100619.00;4975621;28;45443;-53
2022/04/11 06:00:08;;;;;;;;;3.00;3.00;;;;;8.61;48.59;100583.47;4975471;28;46057;-56
2022/04/11 06:02:34;;;;;;;;;5.50;3.50;;;;;8.81;47.66;100613.38;4975783;28;45569;-53
2022/04/11 06:04:59;;;;;;;;;5.75;5.75;;;;;8.78;48.33;100607.38;4975166;28;45317;-54
2022/04/11 06:07:27;;;;;;;;;3.00;3.00;;;;;8.85;48.27;100620.28;4973166;28;45249;-57
2022/04/11 06:09:53;;;;;;;;;6.00;6.00;;;;;8.82;48.02;100603.63;4975834;28;45517;-57
2022/04/11 06:12:20;;;;;;;;;10.50;5.00;;;;;8.95;47.75;100620.66;4974059;28;45914;-54
2022/04/11 06:14:46;;;;;;;;;7.00;6.00;;;;;8.90;48.52;100606.78;4989310;28;45361;-49
2022/04/11 06:17:12;;;;;;;;;5.75;5.75;;;;;8.92;48.36;100614.66;5039181;28;45548;-58
2022/04/11 06:19:37;;;;;;;;;8.00;6.25;;;;;9.00;47.16;100621.31;4974868;28;47385;-59
2022/04/11 06:22:03;;;;;;;;;0.50;0.00;;;;;8.87;47.37;100591.03;4972503;28;45464;-51
2022/04/11 06:24:28;;;;;;;;;3.00;3.00;;;;;9.02;48.23;100613.28;4955210;28;45488;-52
2022/04/11 06:26:54;;;;;;;;;9.00;6.00;;;;;9.04;47.98;100619.38;4957129;28;45512;-52
2022/04/11 06:29:19;;;;;;;;;10.25;5.75;;;;;9.02;47.61;100615.94;4968004;28;45890;-51
2022/04/11 06:31:45;;;;;;;;;8.75;7.50;;;;;9.11;47.58;100628.72;4985651;27;45519;-50
2022/04/11 06:34:10;;;;;;;;;5.25;5.25;;;;;9.12;47.35;100623.38;4975775;28;45431;-53
2022/04/11 06:36:36;;;;;;;;;6.75;6.75;;;;;9.12;47.48;100622.50;4976670;28;45476;-54
2022/04/11 06:39:01;;;;;;;;;6.00;6.00;;;;;9.02;47.43;100594.72;4970837;28;45420;-50
2022/04/11 06:41:27;;;;;;;;;4.00;4.00;;;;;9.05;47.64;100586.59;4955668;28;45383;-52
2022/04/11 06:43:52;;;;;;;;;34.00;23.50;;;;;9.15;47.88;100609.09;4956069;28;45378;-52
2022/04/11 06:46:17;;;;;;;;;16.50;13.00;;;;;9.13;47.73;100585.28;4956546;28;45354;-51
2022/04/11 06:48:43;;;;;;;;;10.00;7.75;;;;;9.19;47.05;100589.41;4956019;28;45803;-51
2022/04/11 06:51:08;;;;;;;;;6.25;6.25;;;;;9.22;47.29;100581.28;4956764;28;45434;-52
2022/04/11 06:53:34;;;;;;;;;9.75;3.50;;;;;9.22;47.65;100581.28;4955969;28;45456;-52
2022/04/11 06:55:59;;;;;;;;;7.00;7.00;;;;;9.28;47.71;100578.34;4955133;28;45505;-52
2022/04/11 06:58:25;;;;;;;;;10.00;8.50;;;;;9.32;47.37;100582.53;4956151;28;45457;-51
2022/04/11 07:00:50;;;;;;;;;9.75;5.75;;;;;9.37;47.25;100580.50;4956669;28;45265;-51
2022/04/11 07:03:16;;;;;;;;;10.00;6.25;;;;;9.41;46.80;100575.91;4975331;28;45763;-54
2022/04/11 07:05:42;;;;;;;;;0.00;0.00;;;;;9.51;47.60;100581.63;4976031;28;45515;-53
2022/04/11 07:08:08;;;;;;;;;5.00;4.50;;;;;9.58;46.71;100572.38;4974774;28;46513;-54
2022/04/11 07:10:34;;;;;;;;;5.50;5.50;;;;;9.61;46.65;100575.72;4969283;28;45278;-53
2022/04/11 07:12:59;;;;;;;;;6.00;6.00;;;;;9.66;46.10;100576.34;4975658;28;45495;-53
2022/04/11 07:15:26;;;;;;;;;6.00;6.00;;;;;9.69;46.86;100554.94;4982523;28;45578;-53
2022/04/11 07:17:51;;;;;;;;;5.50;5.50;;;;;9.73;45.46;100548.53;4965932;28;45537;-54
2022/04/11 07:20:17;;;;;;;;;8.00;6.75;;;;;9.74;46.61;100554.69;4969775;28;45550;-54
2022/04/11 07:22:43;;;;;;;;;3.00;3.00;;;;;9.73;46.58;100539.69;4966449;28;45446;-53
2022/04/11 07:25:09;;;;;;;;;5.25;3.00;;;;;9.84;46.94;100547.09;4972161;28;45313;-53
2022/04/11 07:27:35;;;;;;;;;6.50;6.50;;;;;9.88;47.17;100548.63;4959908;28;46200;-55
2022/04/11 07:30:01;;;;;;;;;9.25;7.25;;;;;9.97;46.75;100554.31;4958394;28;45517;-55
2022/04/11 07:32:27;;;;;;;;;7.75;6.00;;;;;9.99;45.88;100539.16;4969544;28;45246;-54
2022/04/11 07:34:53;;;;;;;;;5.50;5.50;;;;;10.02;45.18;100551.41;4975561;28;45624;-52
2022/04/11 07:37:19;;;;;;;;;7.00;7.00;;;;;10.02;46.29;100535.47;4975105;28;45309;-53
2022/04/11 07:39:44;;;;;;;;;8.25;6.00;;;;;10.11;45.86;100536.78;4975075;28;45540;-55
2022/04/11 07:42:10;;;;;;;;;8.50;5.75;;;;;10.09;45.83;100533.34;4975540;28;45358;-52
2022/04/11 07:44:35;;;;;;;;;7.00;7.00;;;;;10.10;46.43;100517.31;4975289;28;45481;-55
2022/04/11 07:47:01;;;;;;;;;9.75;8.25;;;;;10.24;46.28;100535.19;4973947;28;47615;-52
2022/04/11 07:49:26;;;;;;;;;6.00;6.00;;;;;10.26;46.08;100527.97;4974413;28;45393;-52
2022/04/11 07:51:51;;;;;;;;;7.75;7.75;;;;;10.38;45.29;100545.03;4974070;28;45453;-55
2022/04/11 07:54:17;;;;;;;;;11.00;7.00;;;;;10.39;45.91;100534.31;4972331;28;45486;-53
2022/04/11 07:56:42;;;;;;;;;6.25;6.25;;;;;10.38;45.35;100532.63;4975426;28;45364;-54
2022/04/11 07:59:08;;;;;;;;;7.50;7.50;;;;;10.47;45.27;100534.75;4974837;28;45180;-53
2022/04/11 08:01:33;;;;;;;;;10.00;7.00;;;;;10.51;45.44;100528.31;4973621;28;45487;-49
2022/04/11 08:03:58;;;;;;;;;12.50;11.25;;;;;10.58;45.10;100529.69;4975393;28;45406;-57
2022/04/11 08:06:24;;;;;;;;;7.50;5.00;;;;;10.63;45.36;100516.97;4970883;28;45453;-54
2022/04/11 08:08:50;;;;;;;;;10.75;7.50;;;;;10.70;44.93;100519.31;4972734;28;45259;-53
2022/04/11 08:11:19;;;;;;;;;11.00;9.75;;;;;10.74;45.28;100519.03;4973585;28;45485;-56
2022/04/11 08:13:48;;;;;;;;;10.00;7.25;;;;;10.84;45.67;100519.38;4975842;28;45465;-54
2022/04/11 08:16:13;;;;;;;;;10.50;9.00;;;;;10.78;45.21;100498.41;5051740;28;45412;-54
2022/04/11 08:18:39;;;;;;;;;7.00;7.00;;;;;10.92;45.22;100515.28;5077730;27;45347;-53
2022/04/11 08:21:05;;;;;;;;;8.75;8.00;;;;;10.92;45.08;100506.44;5077232;27;45281;-55
2022/04/11 08:23:31;;;;;;;;;8.00;8.00;;;;;11.01;44.53;100503.25;5048968;28;45632;-55
2022/04/11 08:25:57;;;;;;;;;8.75;6.75;;;;;10.98;44.69;100490.13;4954813;28;47491;-53
2022/04/11 08:28:23;;;;;;;;;6.00;6.00;;;;;11.14;45.18;100514.03;4987322;28;45322;-53
2022/04/11 08:30:49;;;;;;;;;7.50;7.50;;;;;11.25;45.22;100521.38;4994303;27;45232;-55
2022/04/11 08:33:15;;;;;;;;;7.75;7.75;;;;;11.31;45.50;100507.69;4994659;27;45474;-55
2022/04/11 08:35:41;;;;;;;;;6.75;6.75;;;;;11.40;44.33;100496.47;4993898;27;45868;-52
2022/04/11 08:38:06;;;;;;;;;8.50;8.50;;;;;11.62;44.58;100494.22;4975769;28;45532;-53
2022/04/11 08:40:32;;;;;;;;;6.50;6.00;;;;;11.94;43.57;100492.22;4993906;27;45441;-53
2022/04/11 08:42:59;;;;;;;;;11.00;7.75;;;;;12.23;42.88;100485.03;4974358;27;45481;-53
2022/04/11 08:45:27;;;;;;;;;8.00;7.00;;;;;12.46;43.23;100467.53;4992474;27;46574;-53
2022/04/11 08:47:53;;;;;;;;;6.75;4.75;;;;;12.85;41.89;100489.88;4992464;27;45448;-52
2022/04/11 08:50:20;;;;;;;;;7.00;7.00;;;;;13.12;40.65;100492.47;4992841;28;45198;-55
2022/04/11 08:52:49;;;;;;;;;6.50;6.50;;;;;13.27;40.29;100465.59;4994481;27;45398;-54
2022/04/11 08:55:15;;;;;;;;;6.00;4.00;;;;;13.60;39.56;100471.38;4977121;27;45509;-56
2022/04/11 08:57:40;;;;;;;;;5.67;5.67;;;;;13.83;39.43;100457.25;4976868;28;45216;-53
2022/04/11 09:00:09;;;;;;;;;3.00;3.00;;;;;14.03;38.68;100453.97;4994509;27;45234;-54
2022/04/11 09:02:35;;;;;;;;;15.00;9.67;;;;;14.21;39.53;100446.44;4993509;27;45547;-54
2022/04/11 09:05:01;;;;;;;;;4.00;4.00;;;;;14.41;38.76;100443.13;4993345;27;46631;-54
2022/04/11 09:07:27;;;;;;;;;9.33;7.33;;;;;14.77;38.76;100445.88;4992291;28;45425;-53
2022/04/11 09:09:52;;;;;;;;;14.00;9.33;;;;;15.09;37.49;100443.41;4996314;27;45502;-54
2022/04/11 09:12:19;;;;;;;;;5.67;4.00;;;;;15.34;36.72;100437.84;4973854;28;45495;-50
2022/04/11 09:14:55;;;;;;;;;5.67;4.33;;;;;15.58;36.50;100437.75;4977011;28;47189;-53
2022/04/11 09:17:24;;;;;;;;;6.33;5.33;;;;;15.81;35.57;100442.19;4997796;27;45338;-54
2022/04/11 09:20:10;;;;;;;;;5.67;4.00;;;;;16.03;34.46;100435.09;4992128;28;45385;-52
2022/04/11 09:22:36;;;;;;;;;6.00;4.00;;;;;16.28;35.62;100439.31;4993525;27;45595;-55
2022/04/11 09:25:29;;;;;;;;;5.00;5.00;;;;;16.68;35.52;100439.56;4979435;28;46954;-53
2022/04/11 09:28:09;;;;;;;;;4.00;4.00;;;;;16.97;34.09;100437.94;4967994;28;45628;-54
2022/04/11 09:30:35;;;;;;;;;4.33;4.00;;;;;17.25;33.72;100430.19;4972703;28;45401;-53
2022/04/11 09:33:05;;;;;;;;;3.00;3.00;;;;;17.50;33.58;100421.72;4961443;28;45619;-53
2022/04/11 09:35:49;;;;;;;;;5.67;5.67;;;;;17.76;33.33;100408.69;4973407;28;46012;-55
2022/04/11 09:38:17;;;;;;;;;4.33;4.33;;;;;18.09;32.93;100414.69;4973955;28;45457;-53
2022/04/11 09:40:48;;;;;;;;;4.67;4.67;;;;;18.35;32.33;100405.09;4973425;28;45424;-52
2022/04/11 09:43:15;;;;;;;;;4.67;4.67;;;;;18.43;32.57;100401.72;4972404;28;45332;-56
2022/04/11 09:45:44;;;;;;;;;4.33;4.33;;;;;18.57;32.31;100406.69;4973271;28;45385;-52
2022/04/11 09:48:11;;;;;;;;;4.00;4.00;;;;;18.73;30.80;100407.00;4973080;28;45403;-54
2022/04/11 09:50:36;;;;;;;;;3.00;3.00;;;;;18.71;31.18;100398.22;4961057;28;45351;-53
2022/04/11 09:53:18;;;;;;;;;4.67;4.00;;;;;18.73;31.68;100401.59;4986858;28;45542;-53
2022/04/11 09:55:48;;;;;;;;;4.67;3.33;;;;;18.72;31.69;100383.75;4992715;28;46180;-53
2022/04/11 09:58:14;;;;;;;;;2.00;2.00;;;;;18.69;30.61;100391.28;4991729;28;45421;-55
2022/04/11 10:00:42;;;;;;;;;3.00;3.00;;;;;18.70;30.97;100399.19;4993162;27;45550;-53
2022/04/11 10:03:08;;;;;;;;;4.67;3.00;;;;;18.65;31.27;100395.25;4991638;27;45370;-53
2022/04/11 10:05:39;;;;;;;;;6.00;5.00;;;;;18.58;31.42;100395.78;4992483;28;45429;-52
2022/04/11 10:08:06;;;;;;;;;7.33;7.33;;;;;18.46;30.73;100396.06;4974301;27;45471;-51
2022/04/11 10:10:34;;;;;;;;;7.00;7.00;;;;;18.36;31.12;100397.88;4967820;28;45426;-52
2022/04/11 10:13:01;;;;;;;;;5.00;5.00;;;;;18.25;31.50;100388.13;4975920;28;45544;-52
2022/04/11 10:15:26;;;;;;;;;3.00;3.00;;;;;18.06;31.61;100385.38;5027364;28;45340;-52
2022/04/11 10:17:54;;;;;;;;;4.00;3.00;;;;;17.90;31.97;100392.16;5077446;27;45767;-54
2022/04/11 10:20:28;;;;;;;;;5.00;3.33;;;;;17.71;32.52;100384.03;5095054;27;45289;-52
2022/04/11 10:23:32;;;;;;;;;3.33;3.00;;;;;17.68;32.83;100387.84;5077927;27;45386;-53
2022/04/11 10:26:00;;;;;;;;;6.00;4.00;;;;;17.66;33.21;100392.47;5078817;27;45512;-53
2022/04/11 10:28:27;;;;;;;;;7.00;5.33;;;;;17.62;32.93;100385.66;5068373;27;45549;-54
2022/04/11 10:31:10;;;;;;;;;3.33;3.00;;;;;17.56;32.61;100380.81;4964624;28;45522;-51
2022/04/11 10:33:55;;;;;;;;;7.00;7.00;;;;;17.54;32.66;100368.50;4956391;28;45378;-51
2022/04/11 10:36:26;;;;;;;;;4.00;4.00;;;;;17.44;31.35;100367.59;4956113;28;45432;-54
2022/04/11 10:39:16;;;;;;;;;11.33;6.67;;;;;17.30;33.11;100363.44;4956565;28;45383;-54
2022/04/11 10:41:54;;;;;;;;;2.67;2.67;;;;;17.28;33.27;100360.06;4956563;28;45280;-53
2022/04/11 10:44:40;;;;;;;;;3.00;3.00;;;;;17.17;32.61;100357.44;4955417;28;45428;-55
2022/04/11 10:47:09;;;;;;;;;5.00;5.00;;;;;17.14;33.05;100365.78;4955206;28;45384;-55
2022/04/11 10:49:57;;;;;;;;;2.00;2.00;;;;;17.14;33.44;100352.34;4965083;28;45552;-55
2022/04/11 10:52:29;;;;;;;;;7.33;4.33;;;;;17.14;33.36;100347.81;4973007;28;45563;-52
2022/04/11 10:54:56;;;;;;;;;3.00;3.00;;;;;17.16;33.04;100335.09;5033585;27;45342;-53
2022/04/11 10:57:44;;;;;;;;;2.67;2.67;;;;;17.17;33.05;100338.63;5013703;27;46060;-54
2022/04/11 11:00:12;;;;;;;;;3.00;3.00;;;;;17.12;32.78;100340.88;4977698;28;45408;-54
2022/04/11 11:02:52;;;;;;;;;3.67;3.67;;;;;17.18;33.70;100343.03;5078497;27;45250;-55
2022/04/11 11:05:29;;;;;;;;;4.33;3.00;;;;;17.28;33.78;100333.16;5078565;27;45360;-56
2022/04/11 11:08:07;;;;;;;;;4.00;4.00;;;;;17.37;33.82;100332.38;5019306;28;45631;-55
2022/04/11 11:10:43;;;;;;;;;3.00;3.00;;;;;17.40;33.21;100316.81;5051647;27;45746;-52
2022/04/11 11:13:30;;;;;;;;;4.00;4.00;;;;;17.48;33.44;100317.97;5076680;28;45734;-53
2022/04/11 11:16:07;;;;;;;;;4.33;3.00;;;;;17.51;33.24;100318.53;5030215;27;45456;-55
2022/04/11 11:18:49;;;;;;;;;3.67;3.67;;;;;17.53;32.58;100316.56;4975382;28;45528;-53
2022/04/11 11:21:14;;;;;;;;;4.00;4.00;;;;;17.62;33.38;100328.34;4976926;28;45250;-53
2022/04/11 11:23:40;;;;;;;;;8.33;8.33;;;;;17.64;32.49;100321.00;4975840;28;45203;-52
2022/04/11 11:26:11;;;;;;;;;5.67;5.67;;;;;17.69;32.67;100326.81;4974469;27;45730;-55
2022/04/11 11:28:40;;;;;;;;;4.00;4.00;;;;;17.76;32.91;100336.06;4992910;28;45409;-59
2022/04/11 11:31:06;;;;;;;;;3.00;3.00;;;;;17.83;33.45;100341.72;4994611;27;45484;-56